Time;durP1;ratioP1;P1;durP2;ratioP2;P2;SDS_P1;SDS_P2;PMS_P1;PMS_P2;Temp;Humidity;BMP_temperature;BMP_pressure;BME280_temperature;BME280_humidity;BME280_pressure;Samples;Min_cycle;Max_cycle;Signal;HPM_P1;HPM_P2
2023/08/29 00:02:44;;;;;;;3.13;3.03;;;;;;;;;;6324629;28;20306;-70
2023/08/29 00:05:49;;;;;;;5.38;2.72;;;;;;;;;;6310113;28;20607;-67
2023/08/29 00:08:53;;;;;;;2.60;2.50;;;;;;;;;;6309947;28;20603;-68
2023/08/29 00:11:57;;;;;;;2.80;2.60;;;;;;;;;;6331016;28;20329;-68
2023/08/29 00:15:01;;;;;;;4.95;2.60;;;;;;;;;;6334850;28;20485;-68
2023/08/29 00:18:05;;;;;;;2.70;2.60;;;;;;;;;;6335156;28;20286;-68
2023/08/29 00:21:11;;;;;;;2.80;2.80;;;;;;;;;;6335524;28;20302;-68
2023/08/29 00:24:14;;;;;;;3.08;2.88;;;;;;;;;;6334974;28;20454;-68
2023/08/29 00:27:18;;;;;;;4.63;2.75;;;;;;;;;;6333385;28;20590;-68
2023/08/29 00:30:23;;;;;;;2.97;2.67;;;;;;;;;;6334738;28;20294;-68
2023/08/29 00:33:27;;;;;;;2.85;2.65;;;;;;;;;;6333363;28;20293;-68
2023/08/29 00:36:32;;;;;;;5.72;2.80;;;;;;;;;;6335192;28;20329;-69
2023/08/29 00:39:36;;;;;;;3.83;2.47;;;;;;;;;;6333374;28;20294;-70
2023/08/29 00:42:40;;;;;;;3.17;2.90;;;;;;;;;;6332717;28;20574;-69
2023/08/29 00:45:44;;;;;;;13.30;2.55;;;;;;;;;;6333935;28;20294;-68
2023/08/29 00:48:48;;;;;;;2.67;2.58;;;;;;;;;;6333030;28;20301;-68
2023/08/29 00:51:55;;;;;;;2.60;2.45;;;;;;;;;;6334200;28;20301;-68
2023/08/29 00:54:59;;;;;;;4.15;2.60;;;;;;;;;;6332806;28;20528;-70
2023/08/29 00:58:03;;;;;;;2.80;2.80;;;;;;;;;;6334686;28;20388;-67
2023/08/29 01:01:07;;;;;;;2.85;2.70;;;;;;;;;;6335354;28;20565;-69
2023/08/29 01:04:11;;;;;;;2.72;2.72;;;;;;;;;;6329204;22;20289;-72
2023/08/29 01:07:17;;;;;;;5.43;2.80;;;;;;;;;;6321919;28;20295;-71
2023/08/29 01:10:26;;;;;;;2.38;2.35;;;;;;;;;;6310210;28;20294;-72
2023/08/29 01:13:34;;;;;;;2.58;2.50;;;;;;;;;;6334405;28;20294;-72
2023/08/29 01:16:42;;;;;;;2.75;2.60;;;;;;;;;;6334696;28;20297;-72
2023/08/29 01:19:49;;;;;;;2.83;2.60;;;;;;;;;;6323505;28;20298;-72
2023/08/29 01:23:01;;;;;;;5.13;2.92;;;;;;;;;;6307537;28;20299;-72
2023/08/29 01:26:12;;;;;;;2.97;2.78;;;;;;;;;;6307214;28;20287;-72
2023/08/29 01:29:17;;;;;;;2.80;2.70;;;;;;;;;;6307435;28;20475;-72
2023/08/29 01:32:22;;;;;;;2.78;2.67;;;;;;;;;;6309485;28;20411;-72
2023/08/29 01:35:25;;;;;;;4.20;2.80;;;;;;;;;;6310200;28;20290;-72
2023/08/29 01:38:30;;;;;;;2.95;2.85;;;;;;;;;;6335217;28;20290;-72
2023/08/29 01:41:35;;;;;;;2.70;2.60;;;;;;;;;;6334454;28;20301;-73
2023/08/29 01:44:39;;;;;;;2.80;2.70;;;;;;;;;;6349533;28;20302;-72
2023/08/29 01:47:43;;;;;;;2.50;2.50;;;;;;;;;;6334547;28;20297;-72
2023/08/29 01:50:48;;;;;;;2.80;2.50;;;;;;;;;;6334138;28;20298;-73
2023/08/29 01:53:52;;;;;;;3.72;2.50;;;;;;;;;;6333575;28;20806;-72
2023/08/29 01:56:59;;;;;;;2.80;2.70;;;;;;;;;;6354657;28;20289;-72
2023/08/29 02:00:03;;;;;;;2.53;2.50;;;;;;;;;;6337268;28;20591;-72
2023/08/29 02:03:16;;;;;;;3.85;2.70;;;;;;;;;;6340634;28;20293;-72
2023/08/29 02:06:22;;;;;;;6.32;2.47;;;;;;;;;;6336889;28;20297;-72
2023/08/29 02:09:26;;;;;;;2.22;2.20;;;;;;;;;;6336788;28;20317;-73
2023/08/29 02:12:31;;;;;;;3.92;2.50;;;;;;;;;;6314983;28;20527;-71
2023/08/29 02:15:36;;;;;;;4.50;2.30;;;;;;;;;;6310948;28;20298;-72
2023/08/29 02:18:40;;;;;;;3.58;2.78;;;;;;;;;;6312556;28;20311;-72
2023/08/29 02:21:48;;;;;;;4.45;2.50;;;;;;;;;;6311655;28;20306;-73
2023/08/29 02:24:51;;;;;;;2.75;2.60;;;;;;;;;;6310899;28;20294;-72
2023/08/29 02:27:56;;;;;;;2.95;2.85;;;;;;;;;;6310582;28;20293;-72
2023/08/29 02:31:03;;;;;;;3.05;2.60;;;;;;;;;;6294973;28;20298;-72
2023/08/29 02:34:07;;;;;;;2.75;2.65;;;;;;;;;;6312455;28;20298;-72
2023/08/29 02:37:11;;;;;;;3.17;2.88;;;;;;;;;;6312932;28;20298;-73
2023/08/29 02:40:15;;;;;;;2.80;2.70;;;;;;;;;;6310843;28;20298;-73
2023/08/29 02:43:20;;;;;;;3.45;2.40;;;;;;;;;;6312094;28;20289;-72
2023/08/29 02:46:24;;;;;;;2.75;2.35;;;;;;;;;;6312457;28;20298;-73
2023/08/29 02:49:30;;;;;;;2.97;2.63;;;;;;;;;;6312031;28;20611;-72
2023/08/29 02:52:34;;;;;;;5.28;2.63;;;;;;;;;;6312653;28;20290;-71
2023/08/29 02:55:40;;;;;;;2.70;2.67;;;;;;;;;;6310164;28;20306;-72
2023/08/29 02:58:46;;;;;;;2.90;2.38;;;;;;;;;;6310275;28;20421;-72
2023/08/29 03:01:50;;;;;;;3.10;2.90;;;;;;;;;;6311427;28;20302;-73
2023/08/29 03:04:54;;;;;;;2.33;2.30;;;;;;;;;;6308181;28;20289;-72
2023/08/29 03:07:59;;;;;;;3.08;2.78;;;;;;;;;;6293599;28;20290;-72
2023/08/29 03:11:05;;;;;;;4.93;2.70;;;;;;;;;;6297271;28;20298;-73
2023/08/29 03:14:10;;;;;;;2.80;2.63;;;;;;;;;;6306446;28;20262;-73
2023/08/29 03:17:14;;;;;;;2.40;2.40;;;;;;;;;;6310558;28;20298;-72
2023/08/29 03:20:19;;;;;;;2.35;2.35;;;;;;;;;;6292404;28;20290;-74
2023/08/29 03:23:24;;;;;;;2.72;2.65;;;;;;;;;;6268422;28;20322;-72
2023/08/29 03:26:28;;;;;;;2.60;2.50;;;;;;;;;;6286140;28;20303;-71
2023/08/29 03:29:33;;;;;;;3.42;2.67;;;;;;;;;;6284875;28;20291;-73
2023/08/29 03:32:37;;;;;;;2.30;2.30;;;;;;;;;;6284637;28;20331;-73
2023/08/29 03:35:41;;;;;;;2.60;2.60;;;;;;;;;;6285958;28;20299;-71
2023/08/29 03:38:45;;;;;;;5.63;3.00;;;;;;;;;;6297567;28;20294;-72
2023/08/29 03:41:49;;;;;;;5.80;2.88;;;;;;;;;;6292215;28;20294;-72
2023/08/29 03:44:54;;;;;;;2.60;2.60;;;;;;;;;;6310510;28;20298;-72
2023/08/29 03:47:57;;;;;;;2.72;2.50;;;;;;;;;;6310743;28;20294;-72
2023/08/29 03:51:05;;;;;;;3.63;2.50;;;;;;;;;;6292022;28;20297;-72
2023/08/29 03:54:10;;;;;;;3.05;2.55;;;;;;;;;;6310663;28;20563;-71
2023/08/29 03:57:13;;;;;;;2.42;2.42;;;;;;;;;;6308469;28;20298;-71
2023/08/29 04:00:19;;;;;;;2.72;2.30;;;;;;;;;;6291667;28;20294;-72
2023/08/29 04:03:23;;;;;;;3.00;2.78;;;;;;;;;;6310149;28;20295;-71
2023/08/29 04:06:28;;;;;;;2.78;2.58;;;;;;;;;;6309481;28;20575;-72
2023/08/29 04:09:32;;;;;;;2.65;2.55;;;;;;;;;;6292545;28;20314;-73
2023/08/29 04:12:35;;;;;;;3.80;2.63;;;;;;;;;;6294971;28;20483;-72
2023/08/29 04:15:41;;;;;;;2.30;2.20;;;;;;;;;;6309613;28;20286;-71
2023/08/29 04:18:44;;;;;;;3.33;2.63;;;;;;;;;;6309000;28;20306;-72
2023/08/29 04:21:49;;;;;;;2.55;2.45;;;;;;;;;;6309629;28;20294;-72
2023/08/29 04:24:53;;;;;;;2.42;2.40;;;;;;;;;;6291025;28;20303;-73
2023/08/29 04:27:57;;;;;;;6.45;2.38;;;;;;;;;;6309907;28;20290;-73
2023/08/29 04:31:09;;;;;;;2.42;2.33;;;;;;;;;;6291400;28;20299;-73
2023/08/29 04:34:13;;;;;;;2.30;2.30;;;;;;;;;;6308725;28;20392;-72
2023/08/29 04:37:17;;;;;;;3.08;2.72;;;;;;;;;;6307841;28;20409;-72
2023/08/29 04:40:21;;;;;;;4.90;2.60;;;;;;;;;;6309339;28;20330;-73
2023/08/29 04:43:25;;;;;;;2.80;2.70;;;;;;;;;;6310134;28;20290;-72
2023/08/29 04:46:30;;;;;;;2.80;2.60;;;;;;;;;;6291117;28;20398;-72
2023/08/29 04:49:35;;;;;;;2.45;2.25;;;;;;;;;;6308735;28;20290;-73
2023/08/29 04:52:38;;;;;;;2.70;2.60;;;;;;;;;;6291727;28;20286;-72
2023/08/29 04:55:42;;;;;;;4.57;2.50;;;;;;;;;;6309512;28;20594;-72
2023/08/29 04:58:47;;;;;;;3.08;2.60;;;;;;;;;;6309868;28;20294;-72
2023/08/29 05:01:52;;;;;;;2.70;2.60;;;;;;;;;;6308840;28;20314;-72
2023/08/29 05:04:56;;;;;;;3.00;2.53;;;;;;;;;;6290860;28;20302;-72
2023/08/29 05:08:00;;;;;;;4.65;2.42;;;;;;;;;;6307884;28;20477;-72
2023/08/29 05:11:04;;;;;;;3.10;2.50;;;;;;;;;;6295616;28;20296;-72
2023/08/29 05:14:08;;;;;;;4.47;2.65;;;;;;;;;;6288298;28;20263;-72
2023/08/29 05:17:14;;;;;;;5.78;2.63;;;;;;;;;;6291010;28;20297;-72
2023/08/29 05:20:18;;;;;;;4.65;2.70;;;;;;;;;;6290787;28;20466;-72
2023/08/29 05:23:21;;;;;;;2.92;2.72;;;;;;;;;;6267337;28;20353;-73
2023/08/29 05:26:25;;;;;;;3.03;2.80;;;;;;;;;;6283888;28;20560;-72
2023/08/29 05:29:29;;;;;;;2.35;2.35;;;;;;;;;;6284616;28;20303;-72
2023/08/29 05:32:34;;;;;;;4.90;2.63;;;;;;;;;;6288946;28;20291;-72
2023/08/29 05:35:38;;;;;;;4.10;2.80;;;;;;;;;;6288707;28;20299;-72
2023/08/29 05:38:42;;;;;;;2.55;2.45;;;;;;;;;;6289004;28;20583;-71
2023/08/29 05:41:46;;;;;;;2.88;2.60;;;;;;;;;;6288291;28;20299;-72
2023/08/29 05:44:50;;;;;;;13.75;6.45;;;;;;;;;;6288359;28;20287;-72
2023/08/29 05:47:55;;;;;;;23.60;9.10;;;;;;;;;;6288958;28;20306;-73
2023/08/29 05:50:59;;;;;;;5.75;3.97;;;;;;;;;;6288456;28;20294;-72
2023/08/29 05:54:03;;;;;;;4.30;3.10;;;;;;;;;;6288573;28;20378;-72
2023/08/29 05:57:07;;;;;;;10.00;3.40;;;;;;;;;;6287856;28;20302;-72
2023/08/29 06:00:13;;;;;;;5.00;2.83;;;;;;;;;;6287568;28;20402;-71
2023/08/29 06:03:18;;;;;;;2.38;2.28;;;;;;;;;;6305290;28;20290;-71
2023/08/29 06:06:25;;;;;;;4.88;2.50;;;;;;;;;;6312267;28;20294;-72
2023/08/29 06:09:29;;;;;;;2.40;2.30;;;;;;;;;;6311515;28;20318;-72
2023/08/29 06:12:33;;;;;;;2.83;2.60;;;;;;;;;;6327163;28;20602;-71
2023/08/29 06:15:37;;;;;;;2.30;2.30;;;;;;;;;;6312292;28;20302;-71
2023/08/29 06:18:43;;;;;;;5.65;2.47;;;;;;;;;;6313071;28;20458;-71
2023/08/29 06:21:47;;;;;;;5.47;2.28;;;;;;;;;;6312205;28;20339;-71
2023/08/29 06:24:50;;;;;;;6.00;2.50;;;;;;;;;;6312238;28;20298;-71
2023/08/29 06:27:54;;;;;;;2.63;2.22;;;;;;;;;;6311422;28;20301;-72
2023/08/29 06:31:03;;;;;;;5.40;2.40;;;;;;;;;;6312194;28;20484;-71
2023/08/29 06:34:12;;;;;;;2.58;2.38;;;;;;;;;;6312394;28;20552;-71
2023/08/29 06:37:16;;;;;;;43.38;7.28;;;;;;;;;;6311857;28;20290;-71
2023/08/29 06:40:20;;;;;;;7.00;3.47;;;;;;;;;;6311737;28;20279;-71
2023/08/29 06:43:24;;;;;;;7.97;2.78;;;;;;;;;;6311344;28;20298;-72
2023/08/29 06:46:28;;;;;;;2.70;2.38;;;;;;;;;;6311685;28;20289;-71
2023/08/29 06:49:33;;;;;;;2.15;2.10;;;;;;;;;;6311041;28;20302;-72
2023/08/29 06:52:38;;;;;;;2.63;2.00;;;;;;;;;;6311812;28;20414;-70
2023/08/29 06:55:42;;;;;;;3.88;2.25;;;;;;;;;;6311488;28;20498;-71
2023/08/29 06:58:46;;;;;;;3.70;1.85;;;;;;;;;;6312007;28;20294;-71
2023/08/29 07:01:50;;;;;;;4.22;1.70;;;;;;;;;;6311208;28;20370;-71
2023/08/29 07:04:57;;;;;;;3.83;1.90;;;;;;;;;;6293505;28;20581;-72
2023/08/29 07:08:02;;;;;;;14.57;2.30;;;;;;;;;;6312141;28;20291;-71
2023/08/29 07:11:07;;;;;;;7.25;2.20;;;;;;;;;;6285699;28;20295;-72
2023/08/29 07:14:11;;;;;;;2.95;1.80;;;;;;;;;;6265986;28;20245;-72
2023/08/29 07:17:15;;;;;;;6.22;1.90;;;;;;;;;;6286875;28;20294;-71
2023/08/29 07:20:20;;;;;;;1.80;1.70;;;;;;;;;;6286497;28;20568;-72
2023/08/29 07:23:24;;;;;;;3.22;1.67;;;;;;;;;;6286738;28;20306;-71
2023/08/29 07:26:28;;;;;;;1.75;1.65;;;;;;;;;;6286028;28;20291;-72
2023/08/29 07:29:32;;;;;;;1.85;1.80;;;;;;;;;;6286402;28;20478;-72
2023/08/29 07:32:36;;;;;;;2.42;1.88;;;;;;;;;;6286372;28;20290;-72
2023/08/29 07:35:42;;;;;;;2.65;1.70;;;;;;;;;;6285634;28;20299;-72
2023/08/29 07:38:46;;;;;;;2.00;1.90;;;;;;;;;;6286396;28;20306;-71
2023/08/29 07:41:50;;;;;;;2.00;1.90;;;;;;;;;;6285905;28;20291;-72
2023/08/29 07:44:54;;;;;;;2.83;1.80;;;;;;;;;;6283944;28;20457;-71
2023/08/29 07:47:57;;;;;;;2.30;1.48;;;;;;;;;;6286253;28;20287;-72
2023/08/29 07:51:03;;;;;;;4.78;1.55;;;;;;;;;;6285784;28;20294;-72
2023/08/29 07:54:07;;;;;;;4.78;2.42;;;;;;;;;;6285047;28;20298;-71
2023/08/29 07:57:11;;;;;;;7.75;2.03;;;;;;;;;;6285404;28;20599;-71
2023/08/29 08:00:16;;;;;;;1.85;1.77;;;;;;;;;;6285376;28;20295;-72
2023/08/29 08:03:20;;;;;;;4.68;1.63;;;;;;;;;;6289822;28;20294;-71
2023/08/29 08:06:25;;;;;;;2.85;1.75;;;;;;;;;;6296731;28;20290;-70
2023/08/29 08:09:29;;;;;;;3.38;1.70;;;;;;;;;;6310276;28;20305;-70
2023/08/29 08:12:33;;;;;;;3.50;1.67;;;;;;;;;;6301623;28;20291;-70
2023/08/29 08:15:37;;;;;;;5.90;1.77;;;;;;;;;;6284735;28;20291;-70
2023/08/29 08:18:41;;;;;;;3.72;1.95;;;;;;;;;;6298893;28;20299;-71
2023/08/29 08:21:46;;;;;;;4.68;1.50;;;;;;;;;;6307523;28;20294;-70
2023/08/29 08:24:53;;;;;;;1.83;1.50;;;;;;;;;;6308842;28;20291;-71
2023/08/29 08:27:58;;;;;;;4.55;1.77;;;;;;;;;;6301265;28;20314;-73
2023/08/29 08:31:05;;;;;;;2.22;1.40;;;;;;;;;;6299040;28;20295;-70
2023/08/29 08:34:10;;;;;;;2.25;1.40;;;;;;;;;;6302594;28;20297;-69
2023/08/29 08:37:15;;;;;;;3.33;1.85;;;;;;;;;;6291329;28;20290;-70
2023/08/29 08:40:19;;;;;;;2.75;1.67;;;;;;;;;;6304727;28;20342;-70
2023/08/29 08:43:23;;;;;;;2.78;1.60;;;;;;;;;;6304347;28;20299;-70
2023/08/29 08:46:27;;;;;;;2.72;1.30;;;;;;;;;;6295584;28;20299;-70
2023/08/29 08:49:31;;;;;;;1.92;1.60;;;;;;;;;;6305796;28;20298;-70
2023/08/29 08:52:38;;;;;;;2.03;1.42;;;;;;;;;;6307249;28;20381;-70
2023/08/29 08:55:42;;;;;;;1.55;1.20;;;;;;;;;;6301638;28;20294;-70
2023/08/29 08:58:45;;;;;;;2.35;1.40;;;;;;;;;;6307388;28;20298;-70
2023/08/29 09:01:49;;;;;;;3.90;1.42;;;;;;;;;;6294368;28;21714;-70
2023/08/29 09:04:54;;;;;;;1.50;1.50;;;;;;;;;;6284613;28;20298;-70
2023/08/29 09:08:00;;;;;;;1.65;1.50;;;;;;;;;;6308981;28;20551;-71
2023/08/29 09:11:05;;;;;;;2.00;1.27;;;;;;;;;;6294212;28;20322;-71
2023/08/29 09:14:08;;;;;;;1.60;1.60;;;;;;;;;;6308741;28;20259;-70
2023/08/29 09:17:15;;;;;;;4.55;1.20;;;;;;;;;;6308850;28;20309;-71
2023/08/29 09:20:19;;;;;;;1.20;1.10;;;;;;;;;;6308637;28;20302;-71
2023/08/29 09:23:27;;;;;;;1.58;1.40;;;;;;;;;;6309102;28;20286;-71
2023/08/29 09:26:32;;;;;;;1.30;1.30;;;;;;;;;;6309189;28;20298;-71
2023/08/29 09:29:36;;;;;;;1.48;1.48;;;;;;;;;;6309447;28;20301;-72
2023/08/29 09:32:42;;;;;;;2.83;1.38;;;;;;;;;;6308828;28;20289;-70
2023/08/29 09:35:46;;;;;;;4.22;1.38;;;;;;;;;;6308603;28;20290;-71
2023/08/29 09:38:51;;;;;;;1.08;1.08;;;;;;;;;;6307471;28;20493;-70
2023/08/29 09:42:00;;;;;;;1.67;1.23;;;;;;;;;;6308355;28;20303;-73
2023/08/29 09:45:08;;;;;;;1.48;1.33;;;;;;;;;;6308544;28;20306;-71
2023/08/29 09:48:11;;;;;;;2.25;1.30;;;;;;;;;;6309054;28;20315;-70
2023/08/29 09:51:16;;;;;;;1.25;1.25;;;;;;;;;;6308566;28;20310;-70
2023/08/29 09:54:21;;;;;;;1.10;1.10;;;;;;;;;;6308755;28;20437;-70
2023/08/29 09:57:31;;;;;;;1.13;1.13;;;;;;;;;;6308462;28;20294;-70
2023/08/29 10:00:36;;;;;;;1.60;1.50;;;;;;;;;;6306898;28;20298;-72
2023/08/29 10:03:42;;;;;;;1.95;1.20;;;;;;;;;;6326980;28;20579;-72
2023/08/29 10:06:47;;;;;;;4.10;1.35;;;;;;;;;;6333524;28;20311;-71
2023/08/29 10:09:53;;;;;;;3.22;1.42;;;;;;;;;;6332392;28;20298;-71
2023/08/29 10:12:58;;;;;;;1.50;1.50;;;;;;;;;;6320927;28;20297;-72
2023/08/29 10:16:02;;;;;;;2.28;1.65;;;;;;;;;;6333443;28;20289;-72
2023/08/29 10:19:07;;;;;;;1.70;1.20;;;;;;;;;;6338724;28;20293;-72
2023/08/29 10:22:11;;;;;;;2.28;1.08;;;;;;;;;;6337403;28;20297;-72
2023/08/29 10:25:18;;;;;;;1.30;1.30;;;;;;;;;;6337642;28;20436;-70
2023/08/29 10:28:22;;;;;;;1.52;1.40;;;;;;;;;;6337686;28;20294;-70
2023/08/29 10:31:26;;;;;;;1.35;1.30;;;;;;;;;;6337774;28;20293;-71
2023/08/29 10:34:30;;;;;;;1.38;1.38;;;;;;;;;;6337560;28;20289;-71
2023/08/29 10:37:34;;;;;;;1.30;1.30;;;;;;;;;;6335836;28;20297;-72
2023/08/29 10:40:39;;;;;;;3.20;1.40;;;;;;;;;;6336926;28;20294;-71
2023/08/29 10:43:43;;;;;;;4.35;1.50;;;;;;;;;;6337403;28;20301;-71
2023/08/29 10:46:51;;;;;;;3.00;1.50;;;;;;;;;;6336699;28;20602;-71
2023/08/29 10:49:59;;;;;;;2.05;1.40;;;;;;;;;;6336319;28;20301;-71
2023/08/29 10:53:04;;;;;;;2.50;1.40;;;;;;;;;;6336577;28;20294;-70
2023/08/29 10:56:10;;;;;;;1.30;1.30;;;;;;;;;;6336432;28;20290;-70
2023/08/29 10:59:29;;;;;;;1.10;1.10;;;;;;;;;;6336758;28;20238;-70
2023/08/29 11:02:32;;;;;;;3.60;1.30;;;;;;;;;;6335807;28;20302;-70
2023/08/29 11:05:39;;;;;;;1.40;1.40;;;;;;;;;;6336366;28;20286;-71
2023/08/29 11:08:43;;;;;;;2.97;1.30;;;;;;;;;;6337120;28;20303;-70
2023/08/29 11:12:05;;;;;;;4.25;1.50;;;;;;;;;;6321378;28;20298;-71
2023/08/29 11:15:09;;;;;;;4.15;1.40;;;;;;;;;;6336630;28;20294;-71
2023/08/29 11:18:21;;;;;;;1.25;1.25;;;;;;;;;;6336950;28;20285;-71
2023/08/29 11:21:25;;;;;;;4.93;1.60;;;;;;;;;;6336343;28;20297;-71
2023/08/29 11:24:30;;;;;;;5.65;1.30;;;;;;;;;;6336515;28;20289;-71
2023/08/29 11:27:38;;;;;;;1.30;1.30;;;;;;;;;;6335613;28;20309;-72
2023/08/29 11:30:42;;;;;;;1.42;1.42;;;;;;;;;;6336205;28;20297;-71
2023/08/29 11:33:48;;;;;;;1.42;1.40;;;;;;;;;;6336475;28;20294;-71
2023/08/29 11:36:52;;;;;;;1.70;1.60;;;;;;;;;;6335738;28;20294;-70
2023/08/29 11:39:58;;;;;;;1.00;1.00;;;;;;;;;;6335875;28;20301;-71
2023/08/29 11:43:04;;;;;;;1.42;1.33;;;;;;;;;;6336109;28;20302;-71
2023/08/29 11:46:32;;;;;;;1.33;1.23;;;;;;;;;;6335264;28;20313;-71
2023/08/29 11:49:41;;;;;;;3.45;1.48;;;;;;;;;;6336116;28;20467;-71
2023/08/29 11:52:45;;;;;;;1.20;1.20;;;;;;;;;;6335630;28;20297;-71
2023/08/29 11:55:49;;;;;;;1.60;1.50;;;;;;;;;;6334890;28;20361;-71
2023/08/29 11:58:56;;;;;;;1.30;1.30;;;;;;;;;;6335712;28;20333;-71
2023/08/29 12:02:00;;;;;;;1.42;1.38;;;;;;;;;;6334395;28;20317;-71
2023/08/29 12:05:07;;;;;;;1.58;1.48;;;;;;;;;;6334259;28;20270;-71
2023/08/29 12:08:11;;;;;;;2.22;1.30;;;;;;;;;;6334234;28;20261;-71
2023/08/29 12:11:16;;;;;;;1.95;1.48;;;;;;;;;;6322332;28;20293;-71
2023/08/29 12:14:22;;;;;;;3.22;1.48;;;;;;;;;;6357542;28;20443;-71
2023/08/29 12:17:38;;;;;;;2.05;1.30;;;;;;;;;;6360344;28;20292;-71
2023/08/29 12:20:42;;;;;;;1.83;1.73;;;;;;;;;;6360459;28;20285;-72
2023/08/29 12:23:46;;;;;;;1.13;1.13;;;;;;;;;;6360693;28;20300;-72
2023/08/29 12:26:50;;;;;;;1.40;1.30;;;;;;;;;;6360187;28;20297;-72
2023/08/29 12:29:55;;;;;;;1.40;1.30;;;;;;;;;;6360045;28;20296;-71
2023/08/29 12:33:05;;;;;;;1.42;1.33;;;;;;;;;;6360183;28;20293;-70
2023/08/29 12:36:09;;;;;;;3.33;1.40;;;;;;;;;;6359819;28;20293;-70
2023/08/29 12:39:13;;;;;;;2.30;1.27;;;;;;;;;;6359482;28;20605;-70
2023/08/29 12:42:19;;;;;;;1.65;1.52;;;;;;;;;;6341137;28;20313;-70
2023/08/29 12:45:25;;;;;;;2.53;1.45;;;;;;;;;;6359553;28;20285;-70
2023/08/29 12:48:29;;;;;;;3.53;1.17;;;;;;;;;;6359956;28;20327;-70
2023/08/29 12:51:33;;;;;;;1.38;1.38;;;;;;;;;;6359393;28;20297;-70
2023/08/29 12:54:36;;;;;;;5.93;1.50;;;;;;;;;;6359961;28;20328;-69
2023/08/29 12:57:40;;;;;;;3.33;1.40;;;;;;;;;;6359225;28;20317;-71
2023/08/29 13:00:45;;;;;;;1.40;1.40;;;;;;;;;;6359265;28;20297;-71
2023/08/29 13:03:49;;;;;;;1.50;1.50;;;;;;;;;;6359556;28;20300;-70
2023/08/29 13:06:53;;;;;;;1.85;1.60;;;;;;;;;;6341363;28;20304;-71
2023/08/29 13:09:57;;;;;;;3.63;1.38;;;;;;;;;;6355721;28;20304;-71
2023/08/29 13:13:01;;;;;;;2.13;1.30;;;;;;;;;;6335172;28;20584;-70
2023/08/29 13:16:06;;;;;;;4.90;1.63;;;;;;;;;;6359327;28;20293;-71
2023/08/29 13:19:10;;;;;;;3.05;1.23;;;;;;;;;;6359554;28;20288;-70
2023/08/29 13:22:14;;;;;;;2.15;1.30;;;;;;;;;;6359245;28;20289;-71
2023/08/29 13:25:19;;;;;;;2.80;1.60;;;;;;;;;;6359242;28;20285;-71
2023/08/29 13:28:23;;;;;;;1.48;1.38;;;;;;;;;;6359803;28;20304;-71
2023/08/29 13:31:28;;;;;;;2.30;1.48;;;;;;;;;;6359333;28;20292;-70
2023/08/29 13:34:32;;;;;;;1.20;1.10;;;;;;;;;;6359609;28;20294;-71
2023/08/29 13:37:36;;;;;;;7.78;1.70;;;;;;;;;;6358884;28;20475;-73
2023/08/29 13:40:40;;;;;;;4.22;1.30;;;;;;;;;;6359222;28;20293;-71
2023/08/29 13:43:49;;;;;;;3.42;1.60;;;;;;;;;;6359548;28;20542;-71
2023/08/29 13:46:54;;;;;;;6.85;1.63;;;;;;;;;;6357634;28;20296;-71
2023/08/29 13:49:58;;;;;;;6.70;1.80;;;;;;;;;;6358596;28;20300;-71
2023/08/29 13:53:02;;;;;;;1.50;1.40;;;;;;;;;;6363315;28;20589;-72
2023/08/29 13:56:05;;;;;;;2.47;1.50;;;;;;;;;;6363624;28;20296;-72
2023/08/29 13:59:09;;;;;;;4.47;2.03;;;;;;;;;;6364411;28;20233;-71
2023/08/29 14:02:15;;;;;;;2.40;1.77;;;;;;;;;;6363438;28;20296;-71
2023/08/29 14:05:19;;;;;;;6.40;1.85;;;;;;;;;;6363662;28;20586;-71
2023/08/29 14:08:22;;;;;;;7.50;1.77;;;;;;;;;;6363480;28;20308;-71
2023/08/29 14:11:26;;;;;;;2.15;1.95;;;;;;;;;;6334521;28;20282;-72
2023/08/29 14:14:30;;;;;;;2.75;1.92;;;;;;;;;;6363120;28;20289;-71
2023/08/29 14:17:35;;;;;;;2.30;2.00;;;;;;;;;;6362940;28;20319;-72
2023/08/29 14:20:43;;;;;;;4.75;1.58;;;;;;;;;;6363024;28;20300;-71
2023/08/29 14:23:47;;;;;;;5.00;1.65;;;;;;;;;;6363471;28;20312;-71
2023/08/29 14:26:51;;;;;;;4.25;1.60;;;;;;;;;;6362835;28;20288;-71
2023/08/29 14:29:54;;;;;;;3.47;1.58;;;;;;;;;;6362529;28;20328;-72
2023/08/29 14:33:00;;;;;;;8.05;1.83;;;;;;;;;;6363409;28;20296;-70
2023/08/29 14:36:04;;;;;;;1.70;1.70;;;;;;;;;;6362461;28;20297;-70
2023/08/29 14:39:08;;;;;;;2.47;1.80;;;;;;;;;;6363285;28;20288;-70
2023/08/29 14:42:12;;;;;;;4.43;1.70;;;;;;;;;;6362124;28;20546;-70
2023/08/29 14:45:16;;;;;;;2.60;1.65;;;;;;;;;;6362452;28;20284;-71
2023/08/29 14:48:22;;;;;;;3.78;1.60;;;;;;;;;;6362749;28;20293;-71
2023/08/29 14:51:26;;;;;;;1.85;1.75;;;;;;;;;;6362185;28;20288;-72
2023/08/29 14:54:30;;;;;;;2.00;1.75;;;;;;;;;;6344010;28;20461;-71
2023/08/29 14:57:34;;;;;;;1.67;1.58;;;;;;;;;;6362258;28;20296;-72
2023/08/29 15:00:41;;;;;;;3.65;2.10;;;;;;;;;;6362239;28;20293;-71
2023/08/29 15:03:46;;;;;;;2.83;1.70;;;;;;;;;;6361162;28;20297;-71
2023/08/29 15:06:50;;;;;;;6.60;1.80;;;;;;;;;;6361726;28;20284;-71
2023/08/29 15:09:53;;;;;;;2.33;1.70;;;;;;;;;;6358553;28;20297;-72
2023/08/29 15:12:57;;;;;;;3.88;1.70;;;;;;;;;;6335650;28;20298;-71
2023/08/29 15:16:01;;;;;;;1.98;1.77;;;;;;;;;;6361771;28;20290;-72
2023/08/29 15:19:06;;;;;;;1.92;1.83;;;;;;;;;;6361771;28;20352;-70
2023/08/29 15:22:10;;;;;;;3.35;1.70;;;;;;;;;;6361163;28;20285;-70
2023/08/29 15:25:14;;;;;;;3.17;1.70;;;;;;;;;;6360990;28;20297;-70
2023/08/29 15:28:19;;;;;;;1.58;1.48;;;;;;;;;;6361489;28;20289;-70
2023/08/29 15:31:23;;;;;;;2.38;1.48;;;;;;;;;;6361310;28;20296;-69
2023/08/29 15:34:29;;;;;;;2.35;1.50;;;;;;;;;;6361343;28;20296;-72
2023/08/29 15:37:33;;;;;;;2.00;1.85;;;;;;;;;;6360980;28;20297;-72
2023/08/29 15:40:37;;;;;;;2.53;1.75;;;;;;;;;;6360676;28;20289;-71
2023/08/29 15:43:41;;;;;;;5.03;1.67;;;;;;;;;;6342617;28;20293;-70
2023/08/29 15:46:44;;;;;;;2.15;1.45;;;;;;;;;;6360700;28;20368;-71
2023/08/29 15:49:50;;;;;;;4.22;1.70;;;;;;;;;;6360651;28;20292;-71
2023/08/29 15:52:53;;;;;;;2.10;1.63;;;;;;;;;;6361354;28;20293;-71
2023/08/29 15:56:01;;;;;;;4.35;1.70;;;;;;;;;;6360307;28;20486;-71
2023/08/29 15:59:05;;;;;;;1.80;1.70;;;;;;;;;;6341099;28;20281;-71
2023/08/29 16:02:09;;;;;;;8.63;1.75;;;;;;;;;;6359828;28;20308;-71
2023/08/29 16:05:14;;;;;;;4.10;1.65;;;;;;;;;;6360251;28;20293;-69
2023/08/29 16:08:18;;;;;;;3.63;1.70;;;;;;;;;;6360748;28;20230;-69
2023/08/29 16:11:22;;;;;;;1.65;1.65;;;;;;;;;;6332710;28;20298;-71
2023/08/29 16:14:28;;;;;;;1.60;1.50;;;;;;;;;;6359199;28;20289;-71
2023/08/29 16:17:34;;;;;;;1.98;1.88;;;;;;;;;;6360577;28;20457;-70
2023/08/29 16:20:41;;;;;;;1.60;1.60;;;;;;;;;;6360055;28;20292;-72
2023/08/29 16:23:45;;;;;;;2.00;1.90;;;;;;;;;;6360809;28;20300;-71
2023/08/29 16:26:49;;;;;;;1.85;1.80;;;;;;;;;;6360273;28;20297;-73
2023/08/29 16:29:54;;;;;;;6.90;1.90;;;;;;;;;;6359831;28;20289;-70
2023/08/29 16:32:58;;;;;;;3.33;3.00;;;;;;;;;;6360235;28;20285;-70
2023/08/29 16:36:04;;;;;;;3.40;3.15;;;;;;;;;;6359488;28;20296;-68
2023/08/29 16:39:09;;;;;;;5.15;3.03;;;;;;;;;;6360228;28;20594;-69
2023/08/29 16:42:13;;;;;;;6.15;4.25;;;;;;;;;;6358262;28;20313;-69
2023/08/29 16:45:17;;;;;;;4.15;3.92;;;;;;;;;;6359736;28;20557;-68
2023/08/29 16:48:21;;;;;;;5.40;2.25;;;;;;;;;;6359511;28;20301;-68
2023/08/29 16:51:26;;;;;;;4.85;2.60;;;;;;;;;;6358930;28;20293;-68
2023/08/29 16:54:30;;;;;;;5.30;3.30;;;;;;;;;;6359193;28;20296;-70
2023/08/29 16:57:34;;;;;;;6.20;3.03;;;;;;;;;;6358959;28;20293;-71
2023/08/29 17:00:38;;;;;;;2.63;2.42;;;;;;;;;;6358915;28;20297;-68
2023/08/29 17:03:42;;;;;;;5.50;3.78;;;;;;;;;;6358745;28;20292;-68
2023/08/29 17:06:47;;;;;;;5.75;2.90;;;;;;;;;;6359202;28;20285;-71
2023/08/29 17:09:52;;;;;;;3.00;2.80;;;;;;;;;;6356912;28;20589;-70
2023/08/29 17:12:56;;;;;;;3.10;2.80;;;;;;;;;;6333104;28;20485;-71
2023/08/29 17:16:00;;;;;;;7.63;3.50;;;;;;;;;;6358911;28;20305;-71
2023/08/29 17:19:04;;;;;;;4.63;3.72;;;;;;;;;;6359082;28;20292;-71
2023/08/29 17:22:09;;;;;;;4.47;3.72;;;;;;;;;;6291168;28;20303;-72
2023/08/29 17:25:13;;;;;;;4.30;3.83;;;;;;;;;;6283767;28;20619;-72
2023/08/29 17:28:18;;;;;;;5.15;3.15;;;;;;;;;;6289145;28;20310;-72
2023/08/29 17:31:22;;;;;;;4.70;3.88;;;;;;;;;;6288444;28;20299;-72
2023/08/29 17:34:26;;;;;;;9.93;4.00;;;;;;;;;;6288817;28;20588;-72
2023/08/29 17:37:31;;;;;;;5.45;4.25;;;;;;;;;;6288845;28;20387;-71
2023/08/29 17:40:34;;;;;;;7.88;4.10;;;;;;;;;;6288396;28;20389;-71
2023/08/29 17:43:38;;;;;;;8.00;4.35;;;;;;;;;;6288580;28;20310;-71
2023/08/29 17:46:42;;;;;;;10.95;5.00;;;;;;;;;;6288367;28;20307;-69
2023/08/29 17:49:46;;;;;;;5.25;4.15;;;;;;;;;;6288725;28;20302;-69
2023/08/29 17:52:51;;;;;;;3.72;3.40;;;;;;;;;;6288063;28;20578;-69
2023/08/29 17:55:55;;;;;;;4.95;3.85;;;;;;;;;;6288402;28;20545;-70
2023/08/29 17:58:59;;;;;;;9.07;4.90;;;;;;;;;;6288317;28;20286;-70
2023/08/29 18:02:03;;;;;;;11.15;5.90;;;;;;;;;;6282676;28;20462;-70
2023/08/29 18:05:07;;;;;;;9.15;6.43;;;;;;;;;;6262753;28;20267;-69
2023/08/29 18:08:12;;;;;;;8.65;4.82;;;;;;;;;;6263816;28;20240;-69
2023/08/29 18:11:17;;;;;;;12.57;6.78;;;;;;;;;;6288767;28;20295;-69
2023/08/29 18:14:21;;;;;;;12.93;7.82;;;;;;;;;;6289789;28;20544;-69
2023/08/29 18:17:25;;;;;;;18.88;7.55;;;;;;;;;;6287678;28;20469;-69
2023/08/29 18:20:29;;;;;;;22.73;7.68;;;;;;;;;;6287627;28;20307;-69
2023/08/29 18:23:34;;;;;;;17.17;8.65;;;;;;;;;;6288139;28;20298;-69
2023/08/29 18:26:38;;;;;;;21.38;9.88;;;;;;;;;;6287687;28;20291;-68
2023/08/29 18:29:42;;;;;;;28.30;8.52;;;;;;;;;;6288245;28;20294;-69